createdAt,value
2018-07-23T00:00:47.447Z,20.54
2018-07-23T00:02:40.241Z,20.50
2018-07-23T00:03:40.168Z,20.44
2018-07-23T00:05:32.954Z,20.50
2018-07-23T00:06:32.873Z,20.42
2018-07-23T00:08:25.659Z,20.40
2018-07-23T00:09:25.592Z,20.38
2018-07-23T00:11:18.388Z,20.30
2018-07-23T00:12:18.317Z,20.37
2018-07-23T00:14:11.094Z,20.27
2018-07-23T00:15:11.034Z,20.30
2018-07-23T00:17:03.860Z,20.34
2018-07-23T00:18:03.750Z,20.34
2018-07-23T00:19:56.527Z,20.41
2018-07-23T00:20:56.460Z,20.41
2018-07-23T00:22:49.265Z,20.42
2018-07-23T00:23:49.187Z,20.51
2018-07-23T00:25:41.982Z,20.34
2018-07-23T00:26:41.904Z,20.35
2018-07-23T00:28:34.729Z,20.34
2018-07-23T00:29:34.613Z,20.25
2018-07-23T00:31:27.410Z,20.19
2018-07-23T00:32:27.334Z,20.19
2018-07-23T00:34:20.129Z,20.12
2018-07-23T00:35:20.075Z,20.07
2018-07-23T00:37:12.847Z,20.01
2018-07-23T00:38:12.798Z,20.04
2018-07-23T00:40:05.580Z,20.10
2018-07-23T00:41:05.516Z,20.13
2018-07-23T00:42:58.300Z,20.12
2018-07-23T00:43:58.224Z,20.12
2018-07-23T00:45:51.009Z,20.08
2018-07-23T00:46:50.932Z,20.04
2018-07-23T00:48:43.743Z,19.98
2018-07-23T00:49:43.664Z,19.90
2018-07-23T00:51:36.458Z,19.98
2018-07-23T00:52:36.384Z,19.90
2018-07-23T00:54:29.160Z,20.01
2018-07-23T00:55:29.102Z,20.07
2018-07-23T00:57:21.884Z,20.16
2018-07-23T00:58:21.811Z,20.16
2018-07-23T01:00:14.597Z,20.02
2018-07-23T01:01:14.536Z,20.00
2018-07-23T01:03:07.309Z,19.90
2018-07-23T01:04:07.248Z,19.72
2018-07-23T01:06:00.031Z,19.70
2018-07-23T01:06:59.958Z,19.68
2018-07-23T01:08:52.747Z,19.68
2018-07-23T01:09:52.687Z,19.72
2018-07-23T01:11:45.476Z,19.75
2018-07-23T01:12:45.401Z,19.70
2018-07-23T01:14:38.184Z,19.55
2018-07-23T01:15:38.120Z,19.45
2018-07-23T01:17:30.907Z,19.49
2018-07-23T01:18:30.846Z,19.42
2018-07-23T01:20:23.618Z,19.42
2018-07-23T01:21:23.564Z,19.42
2018-07-23T01:23:16.366Z,19.27
2018-07-23T01:24:16.274Z,19.28
2018-07-23T01:26:09.085Z,19.46
2018-07-23T01:27:09.014Z,19.43
2018-07-23T01:29:01.812Z,19.50
2018-07-23T01:30:01.731Z,19.61
2018-07-23T01:31:54.527Z,19.76
2018-07-23T01:32:54.451Z,19.79
2018-07-23T01:34:47.217Z,19.83
2018-07-23T01:35:47.155Z,19.90
2018-07-23T01:37:39.994Z,19.98
2018-07-23T01:38:39.871Z,19.89
2018-07-23T01:40:32.656Z,19.94
2018-07-23T01:41:32.595Z,19.76
2018-07-23T01:43:25.411Z,19.82
2018-07-23T01:44:25.316Z,19.83
2018-07-23T01:46:18.106Z,19.76
2018-07-23T01:47:18.032Z,19.64
2018-07-23T01:49:10.851Z,19.71
2018-07-23T01:50:10.831Z,19.65
2018-07-23T01:52:03.557Z,19.64
2018-07-23T01:53:03.476Z,19.65
2018-07-23T01:54:56.264Z,19.60
2018-07-23T01:55:56.189Z,19.52
2018-07-23T01:57:48.982Z,19.49
2018-07-23T01:58:48.900Z,19.39
2018-07-23T02:00:41.683Z,19.39
2018-07-23T02:01:41.625Z,19.43
2018-07-23T02:03:34.431Z,19.46
2018-07-23T02:04:34.357Z,19.38
2018-07-23T02:06:27.180Z,19.46
2018-07-23T02:07:27.107Z,19.35
2018-07-23T02:09:19.870Z,19.28
2018-07-23T02:10:19.803Z,19.32
2018-07-23T02:12:12.614Z,19.38
2018-07-23T02:13:12.524Z,19.38
2018-07-23T02:15:05.310Z,19.40
2018-07-23T02:16:05.236Z,19.40
2018-07-23T02:17:58.017Z,19.40
2018-07-23T02:18:57.946Z,19.38
2018-07-23T02:20:50.747Z,19.50
2018-07-23T02:21:50.695Z,19.55
2018-07-23T02:23:43.476Z,19.61
2018-07-23T02:24:43.401Z,19.58
2018-07-23T02:26:36.223Z,19.75
2018-07-23T02:27:36.146Z,19.72
2018-07-23T02:29:28.926Z,19.64
2018-07-23T02:30:28.861Z,19.64
2018-07-23T02:32:21.655Z,19.61
2018-07-23T02:33:21.579Z,19.65
2018-07-23T02:35:14.429Z,19.67
2018-07-23T02:36:14.302Z,19.52
2018-07-23T02:38:07.101Z,19.52
2018-07-23T02:39:07.035Z,19.46
2018-07-23T02:40:59.812Z,19.53
2018-07-23T02:41:59.746Z,19.45
2018-07-23T02:43:52.536Z,19.47
2018-07-23T02:44:52.443Z,19.45
2018-07-23T02:46:45.270Z,19.40
2018-07-23T02:47:45.173Z,19.34
2018-07-23T02:49:37.969Z,19.35
2018-07-23T02:50:37.897Z,19.25
2018-07-23T02:52:30.735Z,19.35
2018-07-23T02:53:30.619Z,19.39
2018-07-23T02:55:23.400Z,19.40
2018-07-23T02:56:23.325Z,19.40
2018-07-23T02:58:16.101Z,19.52
2018-07-23T02:59:16.032Z,19.57
2018-07-23T03:01:08.796Z,19.57
2018-07-23T03:02:08.741Z,19.50
2018-07-23T03:04:01.527Z,19.67
2018-07-23T03:05:01.472Z,19.57
2018-07-23T03:06:54.266Z,19.55
2018-07-23T03:07:54.169Z,19.50
2018-07-23T03:09:46.973Z,19.52
2018-07-23T03:10:46.888Z,19.50
2018-07-23T03:12:39.694Z,19.50
2018-07-23T03:13:39.604Z,19.50
2018-07-23T03:15:32.396Z,19.61
2018-07-23T03:16:32.352Z,19.58
2018-07-23T03:18:25.103Z,19.64
2018-07-23T03:19:25.025Z,19.70
2018-07-23T03:21:17.813Z,19.76
2018-07-23T03:22:17.757Z,19.83
2018-07-23T03:24:10.533Z,19.67
2018-07-23T03:25:10.452Z,19.76
2018-07-23T03:27:03.219Z,19.76
2018-07-23T03:28:03.152Z,19.70
2018-07-23T03:29:55.937Z,19.72
2018-07-23T03:30:55.872Z,19.75
2018-07-23T03:32:48.645Z,19.75
2018-07-23T03:33:48.570Z,19.79
2018-07-23T03:35:41.344Z,19.86
2018-07-23T03:36:41.289Z,19.94
2018-07-23T03:38:34.073Z,19.94
2018-07-23T03:39:34.003Z,20.04
2018-07-23T03:41:26.768Z,20.08
2018-07-23T03:42:26.706Z,20.16
2018-07-23T03:44:19.518Z,20.15
2018-07-23T03:45:19.442Z,20.16
2018-07-23T03:47:12.241Z,20.22
2018-07-23T03:48:12.144Z,20.22
2018-07-23T03:50:04.925Z,20.20
2018-07-23T03:51:04.852Z,20.23
2018-07-23T03:52:57.638Z,20.22
2018-07-23T03:53:57.559Z,20.22
2018-07-23T03:55:50.342Z,20.20
2018-07-23T03:56:50.281Z,20.23
2018-07-23T03:58:43.060Z,20.22
2018-07-23T03:59:42.985Z,20.22
2018-07-23T04:01:35.765Z,20.15
2018-07-23T04:02:35.707Z,20.16
2018-07-23T04:04:28.488Z,20.22
2018-07-23T04:05:28.413Z,20.20
2018-07-23T04:07:21.237Z,20.17
2018-07-23T04:08:21.144Z,20.16
2018-07-23T04:10:13.927Z,20.17
2018-07-23T04:11:13.858Z,20.12
2018-07-23T04:13:06.647Z,20.13
2018-07-23T04:14:06.582Z,20.01
2018-07-23T04:15:59.368Z,20.17
2018-07-23T04:16:59.303Z,20.17
2018-07-23T04:18:52.109Z,20.20
2018-07-23T04:19:52.039Z,20.20
2018-07-23T04:21:44.828Z,20.20
2018-07-23T04:22:44.753Z,20.23
2018-07-23T04:24:37.554Z,20.25
2018-07-23T04:25:37.487Z,20.22
2018-07-23T04:27:30.332Z,20.22
2018-07-23T04:28:30.236Z,20.23
2018-07-23T04:30:23.063Z,20.22
2018-07-23T04:31:22.972Z,20.22
2018-07-23T04:33:15.780Z,20.20
2018-07-23T04:34:15.717Z,20.16
2018-07-23T04:36:08.464Z,20.25
2018-07-23T04:37:08.394Z,20.26
2018-07-23T04:39:01.177Z,20.37
2018-07-23T04:40:01.098Z,20.37
2018-07-23T04:41:53.884Z,20.42
2018-07-23T04:42:53.816Z,20.38
2018-07-23T04:44:46.613Z,20.40
2018-07-23T04:45:46.524Z,20.46
2018-07-23T04:47:39.297Z,20.37
2018-07-23T04:48:39.233Z,20.50
2018-07-23T04:50:32.054Z,20.51
2018-07-23T04:51:31.950Z,20.54
2018-07-23T04:53:24.754Z,20.63
2018-07-23T04:54:24.684Z,20.68
2018-07-23T04:56:17.484Z,20.73
2018-07-23T04:57:17.408Z,20.78
2018-07-23T04:59:10.197Z,20.87
2018-07-23T05:00:10.129Z,20.90
2018-07-23T05:02:02.943Z,21.18
2018-07-23T05:03:02.873Z,21.26
2018-07-23T05:04:55.920Z,21.37
2018-07-23T05:05:55.582Z,21.48
2018-07-23T05:07:48.379Z,21.67
2018-07-23T05:08:48.308Z,21.74
2018-07-23T05:10:41.107Z,22.04
2018-07-23T05:11:41.037Z,22.19
2018-07-23T05:13:33.825Z,22.88
2018-07-23T05:14:33.760Z,23.59
2018-07-23T05:16:26.563Z,24.90
2018-07-23T05:17:26.501Z,25.39
2018-07-23T05:19:19.276Z,26.27
2018-07-23T05:20:19.228Z,26.73
2018-07-23T05:22:11.970Z,27.28
2018-07-23T05:23:11.911Z,27.61
2018-07-23T05:25:04.709Z,27.84
2018-07-23T05:26:04.657Z,28.15
2018-07-23T05:27:57.446Z,28.36
2018-07-23T05:28:57.382Z,28.30
2018-07-23T05:30:50.194Z,28.60
2018-07-23T05:31:50.167Z,28.72
2018-07-23T05:33:42.949Z,28.88
2018-07-23T05:34:42.879Z,29.00
2018-07-23T05:36:35.654Z,29.03
2018-07-23T05:37:35.602Z,29.03
2018-07-23T05:39:28.400Z,28.88
2018-07-23T05:40:28.339Z,29.07
2018-07-23T05:42:21.146Z,29.30
2018-07-23T05:43:21.096Z,29.48
2018-07-23T05:45:13.922Z,29.57
2018-07-23T05:46:13.846Z,29.73
2018-07-23T05:48:06.629Z,30.07
2018-07-23T05:49:06.589Z,30.25
2018-07-23T05:50:59.426Z,30.36
2018-07-23T05:51:59.352Z,30.40
2018-07-23T05:53:52.161Z,30.38
2018-07-23T05:54:52.101Z,30.45
2018-07-23T05:56:44.905Z,30.64
2018-07-23T05:57:44.935Z,30.68
2018-07-23T05:59:37.671Z,30.59
2018-07-23T06:00:37.590Z,30.81
2018-07-23T06:02:30.386Z,31.01
2018-07-23T06:03:30.345Z,31.42
2018-07-23T06:05:23.154Z,31.57
2018-07-23T06:06:23.144Z,31.64
2018-07-23T06:08:15.936Z,31.78
2018-07-23T06:09:15.857Z,31.84
2018-07-23T06:11:08.667Z,32.13
2018-07-23T06:12:08.599Z,32.09
2018-07-23T06:14:01.433Z,32.09
2018-07-23T06:15:01.358Z,31.99
2018-07-23T06:16:54.145Z,31.91
2018-07-23T06:17:54.125Z,31.76
2018-07-23T06:19:46.943Z,31.35
2018-07-23T06:20:46.848Z,31.42
2018-07-23T06:22:39.648Z,31.50
2018-07-23T06:23:39.604Z,31.65
2018-07-23T06:25:32.429Z,31.50
2018-07-23T06:26:32.367Z,31.52
2018-07-23T06:28:25.185Z,31.37
2018-07-23T06:29:25.132Z,31.04
2018-07-23T06:31:17.990Z,31.15
2018-07-23T06:32:17.927Z,31.20
2018-07-23T06:34:10.817Z,31.71
2018-07-23T06:35:10.687Z,31.91
2018-07-23T06:37:03.500Z,31.46
2018-07-23T06:38:03.449Z,31.65
2018-07-23T06:39:56.270Z,31.16
2018-07-23T06:40:56.208Z,31.71
2018-07-23T06:42:49.028Z,31.98
2018-07-23T06:43:48.968Z,32.22
2018-07-23T06:45:41.822Z,32.63
2018-07-23T06:46:41.814Z,32.73
2018-07-23T06:48:34.528Z,32.59
2018-07-23T06:49:34.480Z,32.44
2018-07-23T06:51:27.330Z,32.73
2018-07-23T06:52:27.260Z,32.71
2018-07-23T06:54:20.092Z,32.41
2018-07-23T06:55:20.035Z,32.50
2018-07-23T06:57:12.829Z,32.65
2018-07-23T06:58:12.817Z,32.65
2018-07-23T07:00:05.609Z,33.06
2018-07-23T07:01:05.568Z,32.81
2018-07-23T07:02:58.382Z,32.62
2018-07-23T07:03:58.327Z,32.71
2018-07-23T07:05:51.159Z,32.59
2018-07-23T07:06:51.097Z,32.56
2018-07-23T07:08:44.531Z,32.83
2018-07-23T07:09:44.481Z,32.69
2018-07-23T07:11:37.288Z,32.34
2018-07-23T07:12:37.226Z,32.65
2018-07-23T07:14:30.068Z,32.78
2018-07-23T07:15:30.003Z,32.78
2018-07-23T07:17:22.836Z,32.65
2018-07-23T07:18:22.792Z,32.77
2018-07-23T07:20:15.637Z,32.68
2018-07-23T07:21:15.554Z,32.63
2018-07-23T07:23:08.449Z,32.84
2018-07-23T07:24:08.427Z,33.11
2018-07-23T07:26:01.760Z,33.05
2018-07-23T07:27:01.703Z,33.44
2018-07-23T07:28:54.511Z,33.44
2018-07-23T07:29:54.497Z,33.28
2018-07-23T07:31:47.304Z,32.98
2018-07-23T07:32:47.249Z,33.00
2018-07-23T07:34:40.097Z,33.09
2018-07-23T07:35:40.032Z,32.90
2018-07-23T07:37:32.840Z,33.17
2018-07-23T07:38:32.805Z,33.34
2018-07-23T07:40:25.631Z,33.97
2018-07-23T07:41:25.623Z,33.97
2018-07-23T07:43:18.397Z,33.94
2018-07-23T07:44:18.353Z,34.00
2018-07-23T07:46:11.204Z,34.08
2018-07-23T07:47:11.109Z,33.97
2018-07-23T07:49:03.935Z,33.40
2018-07-23T07:50:03.892Z,33.12
2018-07-23T07:51:56.741Z,32.91
2018-07-23T07:52:56.666Z,32.88
2018-07-23T07:54:49.503Z,33.24
2018-07-23T07:55:49.458Z,32.87
2018-07-23T07:57:42.299Z,32.46
2018-07-23T07:58:42.259Z,32.50
2018-07-23T08:00:35.070Z,32.50
2018-07-23T08:01:35.016Z,32.72
2018-07-23T08:03:27.820Z,32.80
2018-07-23T08:04:27.792Z,32.83
2018-07-23T08:06:20.602Z,33.00
2018-07-23T08:07:20.550Z,32.96
2018-07-23T08:09:13.358Z,32.85
2018-07-23T08:10:13.327Z,32.84
2018-07-23T08:12:06.147Z,32.54
2018-07-23T08:13:06.092Z,32.66
2018-07-23T08:14:58.903Z,32.69
2018-07-23T08:15:58.926Z,32.65
2018-07-23T08:17:51.754Z,32.66
2018-07-23T08:18:51.638Z,32.46
2018-07-23T08:20:44.522Z,32.24
2018-07-23T08:21:44.456Z,32.29
2018-07-23T08:23:37.301Z,32.61
2018-07-23T08:24:37.250Z,32.78
2018-07-23T08:26:30.074Z,32.78
2018-07-23T08:27:30.020Z,32.63
2018-07-23T08:29:22.849Z,32.29
2018-07-23T08:30:22.811Z,32.36
2018-07-23T08:32:15.678Z,32.19
2018-07-23T08:33:15.548Z,32.46
2018-07-23T08:35:08.374Z,32.93
2018-07-23T08:36:08.328Z,32.84
2018-07-23T08:38:01.170Z,32.72
2018-07-23T08:39:01.116Z,32.46
2018-07-23T08:40:53.978Z,32.56
2018-07-23T08:41:53.893Z,32.96
2018-07-23T08:43:46.711Z,32.91
2018-07-23T08:44:46.672Z,33.03
2018-07-23T08:46:39.490Z,33.00
2018-07-23T08:47:39.427Z,33.11
2018-07-23T08:49:32.258Z,33.14
2018-07-23T08:50:32.211Z,32.91
2018-07-23T08:52:25.040Z,33.20
2018-07-23T08:53:24.984Z,33.29
2018-07-23T08:55:17.795Z,33.12
2018-07-23T08:56:17.757Z,33.17
2018-07-23T08:58:10.579Z,32.80
2018-07-23T08:59:10.523Z,32.96
2018-07-23T09:01:03.359Z,32.78
2018-07-23T09:02:03.311Z,32.90
2018-07-23T09:03:56.159Z,33.00
2018-07-23T09:04:56.135Z,33.26
2018-07-23T09:06:48.944Z,33.22
2018-07-23T09:07:48.873Z,33.07
2018-07-23T09:09:41.688Z,33.24
2018-07-23T09:10:41.638Z,33.22
2018-07-23T09:12:34.510Z,33.40
2018-07-23T09:13:34.423Z,33.34
2018-07-23T09:15:27.274Z,33.43
2018-07-23T09:16:27.192Z,33.44
2018-07-23T09:18:20.042Z,33.62
2018-07-23T09:19:20.131Z,33.63
2018-07-23T09:21:12.815Z,33.40
2018-07-23T09:22:12.802Z,33.00
2018-07-23T09:24:05.616Z,32.77
2018-07-23T09:25:05.579Z,32.65
2018-07-23T09:26:58.372Z,32.80
2018-07-23T09:27:58.367Z,32.77
2018-07-23T09:29:51.141Z,32.27
2018-07-23T09:30:51.144Z,32.28
2018-07-23T09:32:43.943Z,32.80
2018-07-23T09:33:43.884Z,32.81
2018-07-23T09:35:36.704Z,33.02
2018-07-23T09:36:36.653Z,33.00
2018-07-23T09:38:29.532Z,32.98
2018-07-23T09:39:29.477Z,33.02
2018-07-23T09:41:22.346Z,33.24
2018-07-23T09:42:22.305Z,33.22
2018-07-23T09:44:15.110Z,33.50
2018-07-23T09:45:15.062Z,33.37
2018-07-23T09:47:07.936Z,32.84
2018-07-23T09:48:07.894Z,32.81
2018-07-23T09:50:00.701Z,32.95
2018-07-23T09:51:00.653Z,33.22
2018-07-23T09:52:53.498Z,33.26
2018-07-23T09:53:53.424Z,33.07
2018-07-23T09:55:46.261Z,32.99
2018-07-23T09:56:46.205Z,33.12
2018-07-23T09:58:39.047Z,33.06
2018-07-23T09:59:38.990Z,33.11
2018-07-23T10:01:31.798Z,32.68
2018-07-23T10:02:31.765Z,32.47
2018-07-23T10:04:24.553Z,32.46
2018-07-23T10:05:24.509Z,32.29
2018-07-23T10:07:17.323Z,32.43
2018-07-23T10:08:17.261Z,32.71
2018-07-23T10:10:10.066Z,32.22
2018-07-23T10:11:10.024Z,32.31
2018-07-23T10:13:02.849Z,32.59
2018-07-23T10:14:02.791Z,32.49
2018-07-23T10:15:55.606Z,32.13
2018-07-23T10:16:55.584Z,32.09
2018-07-23T10:18:48.383Z,32.63
2018-07-23T10:19:48.339Z,32.62
2018-07-23T10:21:41.165Z,32.54
2018-07-23T10:22:41.119Z,32.09
2018-07-23T10:24:33.917Z,32.24
2018-07-23T10:25:33.873Z,32.35
2018-07-23T10:27:26.749Z,32.49
2018-07-23T10:28:26.630Z,32.56
2018-07-23T10:30:19.444Z,32.85
2018-07-23T10:31:19.390Z,32.87
2018-07-23T10:33:12.236Z,32.85
2018-07-23T10:34:12.174Z,32.78
2018-07-23T10:36:04.982Z,32.73
2018-07-23T10:37:04.940Z,32.72
2018-07-23T10:38:57.754Z,32.68
2018-07-23T10:39:57.729Z,32.71
2018-07-23T10:41:50.531Z,32.51
2018-07-23T10:42:50.467Z,32.31
2018-07-23T10:44:43.352Z,32.16
2018-07-23T10:45:43.302Z,31.99
2018-07-23T10:47:36.147Z,32.09
2018-07-23T10:48:36.083Z,32.25
2018-07-23T10:50:28.901Z,32.25
2018-07-23T10:51:28.965Z,32.29
2018-07-23T10:53:21.718Z,32.19
2018-07-23T10:54:21.652Z,32.16
2018-07-23T10:56:14.488Z,32.21
2018-07-23T10:57:14.463Z,32.10
2018-07-23T10:59:07.283Z,31.84
2018-07-23T11:00:07.215Z,31.76
2018-07-23T11:02:00.029Z,32.02
2018-07-23T11:02:59.965Z,32.17
2018-07-23T11:04:52.797Z,31.92
2018-07-23T11:05:52.744Z,31.69
2018-07-23T11:07:45.560Z,31.97
2018-07-23T11:08:45.499Z,32.05
2018-07-23T11:10:38.449Z,32.21
2018-07-23T11:11:38.269Z,32.25
2018-07-23T11:13:31.160Z,31.71
2018-07-23T11:14:31.053Z,31.54
2018-07-23T11:16:23.859Z,31.19
2018-07-23T11:17:23.817Z,31.27
2018-07-23T11:19:16.737Z,31.34
2018-07-23T11:20:16.621Z,31.37
2018-07-23T11:22:09.442Z,31.03
2018-07-23T11:23:09.370Z,31.00
2018-07-23T11:25:38.219Z,31.34
2018-07-23T11:26:02.151Z,31.31
2018-07-23T11:27:54.961Z,31.56
2018-07-23T11:28:54.913Z,31.34
2018-07-23T11:30:47.740Z,31.27
2018-07-23T11:31:47.687Z,31.27
2018-07-23T11:33:40.506Z,31.13
2018-07-23T11:34:40.446Z,31.01
2018-07-23T11:36:33.275Z,30.96
2018-07-23T11:37:33.200Z,30.98
2018-07-23T11:39:26.039Z,31.05
2018-07-23T11:40:26.000Z,31.03
2018-07-23T11:42:18.833Z,31.00
2018-07-23T11:43:18.804Z,31.10
2018-07-23T11:45:11.595Z,31.07
2018-07-23T11:46:24.426Z,30.98
2018-07-23T11:48:04.365Z,31.05
2018-07-23T11:49:04.266Z,30.90
2018-07-23T11:50:57.074Z,30.72
2018-07-23T11:51:57.040Z,30.68
2018-07-23T11:53:49.832Z,30.28
2018-07-23T11:54:49.774Z,30.18
2018-07-23T11:56:42.571Z,29.71
2018-07-23T11:57:42.543Z,29.54
2018-07-23T11:59:35.336Z,29.15
2018-07-23T12:00:35.298Z,28.97
2018-07-23T12:02:28.094Z,28.94
2018-07-23T12:03:28.074Z,28.65
2018-07-23T12:05:20.862Z,28.61
2018-07-23T12:06:20.803Z,28.60
2018-07-23T12:08:13.708Z,28.57
2018-07-23T12:09:13.551Z,28.45
2018-07-23T12:11:06.371Z,28.36
2018-07-23T12:12:06.303Z,28.39
2018-07-23T12:13:59.119Z,28.46
2018-07-23T12:14:59.046Z,28.50
2018-07-23T12:16:51.939Z,28.28
2018-07-23T12:17:51.827Z,28.35
2018-07-23T12:19:44.651Z,28.32
2018-07-23T12:20:44.559Z,28.35
2018-07-23T12:22:37.397Z,28.35
2018-07-23T12:23:37.312Z,28.20
2018-07-23T12:25:30.152Z,28.28
2018-07-23T12:26:30.124Z,28.32
2018-07-23T12:28:22.911Z,28.45
2018-07-23T12:29:22.848Z,28.27
2018-07-23T12:31:15.638Z,28.43
2018-07-23T12:32:15.577Z,28.33
2018-07-23T12:34:08.543Z,28.32
2018-07-23T12:35:08.340Z,28.30
2018-07-23T12:37:01.107Z,28.20
2018-07-23T12:38:01.040Z,28.18
2018-07-23T12:39:54.009Z,28.13
2018-07-23T12:40:53.907Z,28.25
2018-07-23T12:42:46.702Z,28.18
2018-07-23T12:43:46.637Z,28.14
2018-07-23T12:45:39.431Z,28.18
2018-07-23T12:46:39.374Z,28.14
2018-07-23T12:48:32.171Z,28.18
2018-07-23T12:49:32.118Z,28.11
2018-07-23T12:51:24.924Z,28.09
2018-07-23T12:52:24.878Z,28.14
2018-07-23T12:54:17.675Z,28.13
2018-07-23T12:55:17.594Z,28.20
2018-07-23T12:57:10.384Z,28.09
2018-07-23T12:58:10.335Z,28.18
2018-07-23T13:00:03.245Z,28.05
2018-07-23T13:01:03.091Z,28.05
2018-07-23T13:02:56.003Z,28.11
2018-07-23T13:03:55.974Z,28.14
2018-07-23T13:05:48.870Z,28.06
2018-07-23T13:06:48.769Z,28.17
2018-07-23T13:08:41.593Z,27.95
2018-07-23T13:09:41.498Z,27.90
2018-07-23T13:11:34.299Z,27.98
2018-07-23T13:12:34.232Z,28.08
2018-07-23T13:14:27.061Z,28.09
2018-07-23T13:15:26.984Z,28.03
2018-07-23T13:17:19.794Z,28.02
2018-07-23T13:18:19.809Z,27.95
2018-07-23T13:20:12.577Z,27.99
2018-07-23T13:21:12.477Z,27.96
2018-07-23T13:23:05.326Z,27.91
2018-07-23T13:24:05.247Z,27.93
2018-07-23T13:25:58.079Z,28.02
2018-07-23T13:26:58.021Z,28.03
2018-07-23T13:28:50.839Z,28.03
2018-07-23T13:29:50.801Z,27.98
2018-07-23T13:31:43.580Z,28.03
2018-07-23T13:32:43.530Z,27.95
2018-07-23T13:34:36.398Z,27.91
2018-07-23T13:35:36.294Z,28.03
2018-07-23T13:37:29.084Z,27.96
2018-07-23T13:38:29.029Z,27.88
2018-07-23T13:40:21.873Z,27.84
2018-07-23T13:41:21.782Z,27.80
2018-07-23T13:43:14.589Z,27.77
2018-07-23T13:44:14.521Z,27.77
2018-07-23T13:46:07.348Z,27.91
2018-07-23T13:47:07.272Z,27.87
2018-07-23T13:49:00.067Z,27.96
2018-07-23T13:50:00.009Z,28.03
2018-07-23T13:51:52.887Z,28.05
2018-07-23T13:52:52.750Z,28.03
2018-07-23T13:54:45.549Z,28.01
2018-07-23T13:55:45.489Z,28.03
2018-07-23T13:57:38.288Z,28.02
2018-07-23T13:58:38.231Z,27.91
2018-07-23T14:00:31.058Z,27.84
2018-07-23T14:01:30.976Z,27.86
2018-07-23T14:03:23.781Z,27.95
2018-07-23T14:04:23.743Z,27.98
2018-07-23T14:06:16.559Z,28.05
2018-07-23T14:07:16.454Z,28.06
2018-07-23T14:09:09.241Z,28.02
2018-07-23T14:10:09.171Z,28.02
2018-07-23T14:12:01.991Z,27.99
2018-07-23T14:13:01.922Z,27.99
2018-07-23T14:14:54.729Z,27.95
2018-07-23T14:15:54.669Z,27.95
2018-07-23T14:17:47.442Z,28.02
2018-07-23T14:18:47.391Z,28.01
2018-07-23T14:20:40.185Z,27.96
2018-07-23T14:21:40.118Z,28.01
2018-07-23T14:23:32.929Z,28.01
2018-07-23T14:24:32.874Z,28.05
2018-07-23T14:26:25.666Z,27.99
2018-07-23T14:27:25.595Z,27.98
2018-07-23T14:29:18.394Z,27.99
2018-07-23T14:30:18.398Z,27.99
2018-07-23T14:32:11.114Z,27.90
2018-07-23T14:33:11.083Z,27.99
2018-07-23T14:35:03.862Z,27.86
2018-07-23T14:36:03.794Z,27.99
2018-07-23T14:37:56.682Z,27.98
2018-07-23T14:38:56.537Z,28.02
2018-07-23T14:40:49.331Z,27.98
2018-07-23T14:41:49.268Z,27.98
2018-07-23T14:43:42.049Z,28.08
2018-07-23T14:44:41.990Z,28.08
2018-07-23T14:46:34.835Z,28.02
2018-07-23T14:47:34.770Z,28.06
2018-07-23T14:49:27.655Z,28.08
2018-07-23T14:50:27.527Z,28.01
2018-07-23T14:52:20.328Z,28.01
2018-07-23T14:53:20.263Z,28.05
2018-07-23T14:55:13.072Z,27.98
2018-07-23T14:56:13.004Z,28.01
2018-07-23T14:58:05.833Z,27.90
2018-07-23T14:59:05.764Z,27.93
2018-07-23T15:00:58.578Z,28.03
2018-07-23T15:01:58.505Z,27.98
2018-07-23T15:03:51.321Z,27.99
2018-07-23T15:04:51.345Z,28.03
2018-07-23T15:06:44.076Z,28.14
2018-07-23T15:07:44.002Z,28.08
2018-07-23T15:09:36.787Z,27.99
2018-07-23T15:10:36.715Z,27.98
2018-07-23T15:12:29.553Z,27.98
2018-07-23T15:13:29.479Z,27.95
2018-07-23T15:15:22.296Z,27.98
2018-07-23T15:16:22.222Z,27.98
2018-07-23T15:18:15.029Z,27.95
2018-07-23T15:19:14.931Z,27.98
2018-07-23T15:21:07.740Z,27.98
2018-07-23T15:22:07.712Z,28.01
2018-07-23T15:24:00.536Z,27.96
2018-07-23T15:25:00.477Z,28.01
2018-07-23T15:26:53.328Z,28.03
2018-07-23T15:27:53.253Z,27.98
2018-07-23T15:29:46.052Z,27.90
2018-07-23T15:30:45.997Z,27.93
2018-07-23T15:32:38.944Z,27.91
2018-07-23T15:33:38.698Z,27.90
2018-07-23T15:35:31.530Z,27.95
2018-07-23T15:36:31.451Z,27.96
2018-07-23T15:38:24.293Z,27.99
2018-07-23T15:39:24.188Z,27.91
2018-07-23T15:41:17.087Z,27.96
2018-07-23T15:42:16.938Z,27.96
2018-07-23T15:44:09.800Z,27.93
2018-07-23T15:45:09.790Z,27.88
2018-07-23T15:47:02.552Z,27.99
2018-07-23T15:48:02.546Z,27.96
2018-07-23T15:49:55.275Z,27.99
2018-07-23T15:50:55.289Z,27.88
2018-07-23T15:52:47.971Z,27.91
2018-07-23T15:53:47.901Z,27.81
2018-07-23T15:55:40.712Z,27.90
2018-07-23T15:56:40.691Z,27.86
2018-07-23T15:58:33.526Z,27.78
2018-07-23T15:59:33.466Z,27.78
2018-07-23T16:01:26.274Z,27.78
2018-07-23T16:02:26.185Z,27.77
2018-07-23T16:04:18.954Z,27.80
2018-07-23T16:05:18.934Z,27.74
2018-07-23T16:07:11.693Z,27.71
2018-07-23T16:08:11.621Z,27.76
2018-07-23T16:10:04.472Z,27.83
2018-07-23T16:11:04.377Z,27.71
2018-07-23T16:12:57.163Z,27.74
2018-07-23T16:13:57.107Z,27.78
2018-07-23T16:15:49.919Z,27.81
2018-07-23T16:16:49.853Z,27.71
2018-07-23T16:18:42.652Z,27.83
2018-07-23T16:19:42.652Z,27.68
2018-07-23T16:21:35.376Z,27.69
2018-07-23T16:22:35.346Z,27.68
2018-07-23T16:24:28.135Z,27.68
2018-07-23T16:25:28.057Z,27.66
2018-07-23T16:27:20.910Z,27.63
2018-07-23T16:28:20.862Z,27.74
2018-07-23T16:30:13.627Z,27.78
2018-07-23T16:31:13.580Z,27.69
2018-07-23T16:33:06.366Z,27.69
2018-07-23T16:34:06.302Z,27.71
2018-07-23T16:35:59.095Z,27.71
2018-07-23T16:36:59.018Z,27.74
2018-07-23T16:38:51.884Z,27.63
2018-07-23T16:39:51.782Z,27.63
2018-07-23T16:41:44.559Z,27.61
2018-07-23T16:42:44.493Z,27.59
2018-07-23T16:44:37.387Z,27.61
2018-07-23T16:45:37.308Z,27.62
2018-07-23T16:47:30.076Z,27.63
2018-07-23T16:48:30.059Z,27.58
2018-07-23T16:50:22.830Z,27.66
2018-07-23T16:51:22.766Z,27.71
2018-07-23T16:53:15.563Z,27.71
2018-07-23T16:54:15.618Z,27.76
2018-07-23T16:56:08.288Z,27.72
2018-07-23T16:57:08.214Z,27.76
2018-07-23T16:59:01.026Z,27.62
2018-07-23T17:00:01.035Z,27.59
2018-07-23T17:01:53.786Z,27.59
2018-07-23T17:02:53.710Z,27.50
2018-07-23T17:04:46.481Z,27.46
2018-07-23T17:05:46.443Z,27.55
2018-07-23T17:07:39.220Z,27.55
2018-07-23T17:08:39.157Z,27.52
2018-07-23T17:10:31.930Z,27.43
2018-07-23T17:11:31.869Z,27.39
2018-07-23T17:13:24.683Z,27.40
2018-07-23T17:14:24.609Z,27.35
2018-07-23T17:16:17.436Z,27.40
2018-07-23T17:17:17.345Z,27.45
2018-07-23T17:19:10.220Z,27.46
2018-07-23T17:20:10.077Z,27.49
2018-07-23T17:22:02.904Z,27.95
2018-07-23T17:23:02.841Z,28.01
2018-07-23T17:24:55.618Z,27.77
2018-07-23T17:25:55.573Z,27.66
2018-07-23T17:27:48.361Z,27.53
2018-07-23T17:28:48.287Z,27.48
2018-07-23T17:30:41.429Z,27.43
2018-07-23T17:31:41.027Z,27.33
2018-07-23T17:33:33.857Z,27.21
2018-07-23T17:34:33.819Z,27.16
2018-07-23T17:36:26.681Z,27.21
2018-07-23T17:37:26.543Z,27.15
2018-07-23T17:39:19.332Z,27.06
2018-07-23T17:40:19.262Z,27.06
2018-07-23T17:42:12.345Z,27.09
2018-07-23T17:43:11.998Z,26.97
2018-07-23T17:45:04.801Z,26.93
2018-07-23T17:46:04.742Z,26.91
2018-07-23T17:47:57.525Z,26.88
2018-07-23T17:48:57.437Z,26.88
2018-07-23T17:50:50.239Z,26.81
2018-07-23T17:51:50.179Z,26.78
2018-07-23T17:53:43.055Z,26.84
2018-07-23T17:54:43.004Z,26.72
2018-07-23T17:56:35.766Z,26.76
2018-07-23T17:57:35.707Z,26.68
2018-07-23T17:59:28.499Z,26.66
2018-07-23T18:00:28.455Z,26.69
2018-07-23T18:02:21.310Z,26.61
2018-07-23T18:03:21.178Z,26.51
2018-07-23T18:05:13.988Z,26.53
2018-07-23T18:06:13.944Z,26.46
2018-07-23T18:08:06.734Z,26.46
2018-07-23T18:09:06.649Z,26.41
2018-07-23T18:10:59.499Z,26.38
2018-07-23T18:11:59.457Z,26.38
2018-07-23T18:13:52.241Z,26.31
2018-07-23T18:14:52.177Z,26.20
2018-07-23T18:16:45.079Z,26.13
2018-07-23T18:17:45.045Z,26.13
2018-07-23T18:19:37.797Z,26.01
2018-07-23T18:20:37.764Z,26.03
2018-07-23T18:22:30.537Z,26.03
2018-07-23T18:23:30.457Z,26.01
2018-07-23T18:25:23.249Z,25.97
2018-07-23T18:26:23.225Z,26.00
2018-07-23T18:28:15.987Z,26.00
2018-07-23T18:29:15.913Z,25.97
2018-07-23T18:31:08.753Z,25.96
2018-07-23T18:32:08.666Z,25.85